createdAt,value
2018-02-03T00:01:27.531Z,17.87
2018-02-03T00:03:55.377Z,15.13
2018-02-03T00:06:23.165Z,17.63
2018-02-03T00:08:51.443Z,15.50
2018-02-03T00:11:19.833Z,16.13
2018-02-03T00:13:47.574Z,14.83
2018-02-03T00:16:16.017Z,15.63
2018-02-03T00:18:45.556Z,16.37
2018-02-03T00:21:13.276Z,14.53
2018-02-03T00:23:41.121Z,15.17
2018-02-03T00:26:08.902Z,17.23
2018-02-03T00:28:37.331Z,14.77
2018-02-03T00:31:05.197Z,16.03
2018-02-03T00:33:32.913Z,16.87
2018-02-03T00:36:02.023Z,14.93
2018-02-03T00:38:29.819Z,15.57
2018-02-03T00:40:58.456Z,16.37
2018-02-03T00:43:26.268Z,15.77
2018-02-03T00:45:53.992Z,16.13
2018-02-03T00:48:21.724Z,14.63
2018-02-03T00:50:49.767Z,14.37
2018-02-03T00:53:17.456Z,14.90
2018-02-03T00:55:45.391Z,15.07
2018-02-03T00:58:13.155Z,13.70
2018-02-03T01:00:41.526Z,16.23
2018-02-03T01:03:09.295Z,14.37
2018-02-03T01:05:37.076Z,15.70
2018-02-03T01:08:05.734Z,15.40
2018-02-03T01:10:33.713Z,13.30
2018-02-03T01:13:01.412Z,13.90
2018-02-03T01:15:29.337Z,12.43
2018-02-03T01:17:57.924Z,13.97
2018-02-03T01:20:25.996Z,12.30
2018-02-03T01:22:55.358Z,13.47
2018-02-03T01:25:23.265Z,13.83
2018-02-03T01:27:50.958Z,14.13
2018-02-03T01:30:18.645Z,14.17
2018-02-03T01:32:48.052Z,16.43
2018-02-03T01:35:15.781Z,15.37
2018-02-03T01:37:44.130Z,16.43
2018-02-03T01:40:11.846Z,16.70
2018-02-03T01:42:41.125Z,16.63
2018-02-03T01:45:09.533Z,17.50
2018-02-03T01:47:50.246Z,16.67
2018-02-03T01:50:19.109Z,16.43
2018-02-03T01:52:47.211Z,17.73
2018-02-03T01:55:14.963Z,17.90
2018-02-03T01:57:43.396Z,18.57
2018-02-03T02:00:11.220Z,18.13
2018-02-03T02:02:40.530Z,17.53
2018-02-03T02:05:08.264Z,16.83
2018-02-03T02:07:38.251Z,17.73
2018-02-03T02:10:06.754Z,17.77
2018-02-03T02:12:34.729Z,18.53
2018-02-03T02:15:03.515Z,16.93
2018-02-03T02:17:32.096Z,17.77
2018-02-03T02:19:59.882Z,18.77
2018-02-03T02:22:27.571Z,16.77
2018-02-03T02:24:56.310Z,18.40
2018-02-03T02:27:24.169Z,18.87
2018-02-03T02:29:51.896Z,19.80
2018-02-03T02:32:20.271Z,20.47
2018-02-03T02:34:48.694Z,18.43
2018-02-03T02:37:16.460Z,20.93
2018-02-03T02:39:44.332Z,20.77
2018-02-03T02:42:12.198Z,19.87
2018-02-03T02:44:41.422Z,19.03
2018-02-03T02:47:10.053Z,19.30
2018-02-03T02:49:38.345Z,20.17
2018-02-03T02:52:06.151Z,21.27
2018-02-03T02:54:34.287Z,21.97
2018-02-03T02:57:02.594Z,21.07
2018-02-03T02:59:30.640Z,21.13
2018-02-03T03:01:58.432Z,19.80
2018-02-03T03:04:26.440Z,20.53
2018-02-03T03:06:54.168Z,21.60
2018-02-03T03:09:23.344Z,21.60
2018-02-03T03:11:51.767Z,20.80
2018-02-03T03:14:19.488Z,20.33
2018-02-03T03:16:47.275Z,21.07
2018-02-03T03:19:16.732Z,20.77
2018-02-03T03:21:44.585Z,20.00
2018-02-03T03:24:12.456Z,20.43
2018-02-03T03:26:40.637Z,19.03
2018-02-03T03:29:08.708Z,20.80
2018-02-03T03:31:36.468Z,20.23
2018-02-03T03:34:04.832Z,20.70
2018-02-03T03:36:32.615Z,19.90
2018-02-03T03:39:00.572Z,18.63
2018-02-03T03:41:28.357Z,19.23
2018-02-03T03:43:57.039Z,18.87
2018-02-03T03:46:25.629Z,21.33
2018-02-03T03:48:54.223Z,19.33
2018-02-03T03:51:22.801Z,19.57
2018-02-03T03:53:51.256Z,20.07
2018-02-03T03:56:18.996Z,19.03
2018-02-03T03:58:46.770Z,19.03
2018-02-03T04:01:14.777Z,18.77
2018-02-03T04:03:42.603Z,17.67
2018-02-03T04:06:10.469Z,18.57
2018-02-03T04:08:38.447Z,17.97
2018-02-03T04:11:06.255Z,18.53
2018-02-03T04:13:35.437Z,18.30
2018-02-03T04:16:03.582Z,18.53
2018-02-03T04:18:31.556Z,20.33
2018-02-03T04:20:59.517Z,20.03
2018-02-03T04:23:27.383Z,19.20
2018-02-03T04:25:56.020Z,18.60
2018-02-03T04:28:24.017Z,18.60
2018-02-03T04:30:52.590Z,17.50
2018-02-03T04:33:21.049Z,17.13
2018-02-03T04:35:49.579Z,16.87
2018-02-03T04:38:17.257Z,18.37
2018-02-03T04:40:45.032Z,18.23
2018-02-03T04:43:12.686Z,17.60
2018-02-03T04:45:41.640Z,18.27
2018-02-03T04:48:09.625Z,17.40
2018-02-03T04:50:37.818Z,17.53
2018-02-03T04:53:05.692Z,17.50
2018-02-03T04:55:34.247Z,16.73
2018-02-03T04:58:02.001Z,17.80
2018-02-03T05:00:30.374Z,16.63
2018-02-03T05:02:58.358Z,14.97
2018-02-03T05:05:26.063Z,15.40
2018-02-03T05:07:54.701Z,14.50
2018-02-03T05:10:22.467Z,14.57
2018-02-03T05:12:50.461Z,14.43
2018-02-03T05:15:19.707Z,13.47
2018-02-03T05:17:48.374Z,14.00
2018-02-03T05:20:16.921Z,11.57
2018-02-03T05:22:45.345Z,14.57
2018-02-03T05:25:13.146Z,13.77
2018-02-03T05:27:41.183Z,14.50
2018-02-03T05:30:09.216Z,14.57
2018-02-03T05:32:37.263Z,14.93
2018-02-03T05:35:06.118Z,12.83
2018-02-03T05:37:34.707Z,14.03
2018-02-03T05:40:02.441Z,13.17
2018-02-03T05:42:31.242Z,14.03
2018-02-03T05:45:00.481Z,14.03
2018-02-03T05:47:28.843Z,13.17
2018-02-03T05:49:59.106Z,13.23
2018-02-03T05:52:27.690Z,13.30
2018-02-03T05:54:55.783Z,13.63
2018-02-03T05:57:23.704Z,13.10
2018-02-03T05:59:51.520Z,13.10
2018-02-03T06:02:20.174Z,12.73
2018-02-03T06:04:48.648Z,12.57
2018-02-03T06:07:17.151Z,12.80
2018-02-03T06:09:46.401Z,11.77
2018-02-03T06:12:14.331Z,11.03
2018-02-03T06:14:42.235Z,12.43
2018-02-03T06:17:10.333Z,10.33
2018-02-03T06:19:38.411Z,11.00
2018-02-03T06:22:07.161Z,11.90
2018-02-03T06:24:35.517Z,11.07
2018-02-03T06:27:03.349Z,11.03
2018-02-03T06:29:31.072Z,12.13
2018-02-03T06:31:59.080Z,12.73
2018-02-03T06:34:27.896Z,12.07
2018-02-03T06:36:56.536Z,11.97
2018-02-03T06:39:25.028Z,12.60
2018-02-03T06:41:53.481Z,13.67
2018-02-03T06:44:21.170Z,13.13
2018-02-03T06:46:49.915Z,12.80
2018-02-03T06:49:19.713Z,12.00
2018-02-03T06:51:47.812Z,12.50
2018-02-03T06:54:16.684Z,11.63
2018-02-03T06:56:45.446Z,12.27
2018-02-03T06:59:13.340Z,11.57
2018-02-03T07:01:41.049Z,10.93
2018-02-03T07:04:08.868Z,11.23
2018-02-03T07:06:38.899Z,11.30
2018-02-03T07:09:08.071Z,13.17
2018-02-03T07:11:36.205Z,13.23
2018-02-03T07:14:04.661Z,14.10
2018-02-03T07:16:32.712Z,13.77
2018-02-03T07:19:00.941Z,14.20
2018-02-03T07:21:29.719Z,14.33
2018-02-03T07:23:58.609Z,15.27
2018-02-03T07:26:27.249Z,13.47
2018-02-03T07:28:56.490Z,15.20
2018-02-03T07:31:24.301Z,13.23
2018-02-03T07:33:53.109Z,10.37
2018-02-03T07:36:21.557Z,9.00
2018-02-03T07:38:50.299Z,9.53
2018-02-03T07:41:18.531Z,10.23
2018-02-03T07:43:46.496Z,9.63
2018-02-03T07:46:14.361Z,9.53
2018-02-03T07:48:42.038Z,9.13
2018-02-03T07:51:09.852Z,9.60
2018-02-03T07:53:37.550Z,8.87
2018-02-03T07:56:05.949Z,9.67
2018-02-03T07:58:34.184Z,10.33
2018-02-03T08:01:02.947Z,9.23
2018-02-03T08:03:30.637Z,9.60
2018-02-03T08:05:58.467Z,9.63
2018-02-03T08:08:27.188Z,8.70
2018-02-03T08:10:55.754Z,9.17
2018-02-03T08:13:23.468Z,9.53
2018-02-03T08:15:51.313Z,9.80
2018-02-03T08:18:19.164Z,10.47
2018-02-03T08:20:47.763Z,9.87
2018-02-03T08:23:16.608Z,10.83
2018-02-03T08:25:44.414Z,9.03
2018-02-03T08:28:12.168Z,10.43
2018-02-03T08:30:40.658Z,9.93
2018-02-03T08:33:08.990Z,8.87
2018-02-03T08:35:37.446Z,9.60
2018-02-03T08:38:05.792Z,9.70
2018-02-03T08:40:34.302Z,9.00
2018-02-03T08:43:02.191Z,8.37
2018-02-03T08:45:30.704Z,9.10
2018-02-03T08:47:59.235Z,8.73
2018-02-03T08:50:27.066Z,7.33
2018-02-03T08:52:55.453Z,8.37
2018-02-03T08:55:23.299Z,7.40
2018-02-03T08:57:51.743Z,7.80
2018-02-03T09:00:20.968Z,8.13
2018-02-03T09:02:52.619Z,8.20
2018-02-03T09:05:21.223Z,6.80
2018-02-03T09:07:48.941Z,7.40
2018-02-03T09:10:17.489Z,7.17
2018-02-03T09:12:46.007Z,6.27
2018-02-03T09:15:14.664Z,5.03
2018-02-03T09:17:43.753Z,5.57
2018-02-03T09:20:11.432Z,3.80
2018-02-03T09:22:40.791Z,4.00
2018-02-03T09:25:09.421Z,4.00
2018-02-03T09:27:38.013Z,3.93
2018-02-03T09:30:08.031Z,3.60
2018-02-03T09:32:35.831Z,3.30
2018-02-03T09:35:03.734Z,3.70
2018-02-03T09:37:32.239Z,3.57
2018-02-03T09:40:00.209Z,3.37
2018-02-03T09:42:27.889Z,4.00
2018-02-03T09:44:56.492Z,3.67
2018-02-03T09:47:24.459Z,3.63
2018-02-03T09:49:52.214Z,3.97
2018-02-03T09:52:20.725Z,4.20
2018-02-03T09:54:48.585Z,4.43
2018-02-03T09:57:17.182Z,4.53
2018-02-03T09:59:45.853Z,4.40
2018-02-03T10:02:14.560Z,5.40
2018-02-03T10:04:43.131Z,5.13
2018-02-03T10:07:12.448Z,4.83
2018-02-03T10:09:40.208Z,5.07
2018-02-03T10:12:08.710Z,5.03
2018-02-03T10:14:37.298Z,5.63
2018-02-03T10:17:05.253Z,5.03
2018-02-03T10:19:34.399Z,5.07
2018-02-03T10:22:02.261Z,5.00
2018-02-03T10:24:30.765Z,5.57
2018-02-03T10:26:59.207Z,6.10
2018-02-03T10:29:28.513Z,6.20
2018-02-03T10:31:56.175Z,6.30
2018-02-03T10:34:24.580Z,6.00
2018-02-03T10:36:53.299Z,6.97
2018-02-03T10:39:22.595Z,6.70
2018-02-03T10:41:51.028Z,6.80
2018-02-03T10:44:19.212Z,6.27
2018-02-03T10:46:48.522Z,6.40
2018-02-03T10:49:17.391Z,6.23
2018-02-03T10:51:46.282Z,7.07
2018-02-03T10:54:14.109Z,7.07
2018-02-03T10:56:41.979Z,6.83
2018-02-03T10:59:10.385Z,6.50
2018-02-03T11:01:38.981Z,6.77
2018-02-03T11:04:07.653Z,6.70
2018-02-03T11:06:35.373Z,6.40
2018-02-03T11:09:03.082Z,6.30
2018-02-03T11:11:30.950Z,7.47
2018-02-03T11:13:58.722Z,7.77
2018-02-03T11:16:27.099Z,6.60
2018-02-03T11:18:54.963Z,6.23
2018-02-03T11:21:23.016Z,6.40
2018-02-03T11:23:51.688Z,6.43
2018-02-03T11:26:20.222Z,6.80
2018-02-03T11:28:48.131Z,7.63
2018-02-03T11:31:16.686Z,7.17
2018-02-03T11:33:44.505Z,7.50
2018-02-03T11:36:12.215Z,7.70
2018-02-03T11:38:40.007Z,7.83
2018-02-03T11:41:07.724Z,8.33
2018-02-03T11:43:35.447Z,8.17
2018-02-03T11:46:03.186Z,8.27
2018-02-03T11:48:30.921Z,7.17
2018-02-03T11:50:58.787Z,8.07
2018-02-03T11:53:27.228Z,7.67
2018-02-03T11:55:55.095Z,6.90
2018-02-03T11:58:22.884Z,7.30
2018-02-03T12:00:50.824Z,7.30
2018-02-03T12:03:18.721Z,7.30
2018-02-03T12:05:46.550Z,7.03
2018-02-03T12:08:14.327Z,7.90
2018-02-03T12:10:42.198Z,7.57
2018-02-03T12:13:11.006Z,7.43
2018-02-03T12:15:38.757Z,7.87
2018-02-03T12:18:07.996Z,7.70
2018-02-03T12:20:35.922Z,7.67
2018-02-03T12:23:04.468Z,7.03
2018-02-03T12:25:32.379Z,7.20
2018-02-03T12:28:01.061Z,8.70
2018-02-03T12:30:29.649Z,7.87
2018-02-03T12:32:58.102Z,8.13
2018-02-03T12:35:25.863Z,7.63
2018-02-03T12:37:54.444Z,7.90
2018-02-03T12:40:22.246Z,8.47
2018-02-03T12:42:49.989Z,7.57
2018-02-03T12:45:19.297Z,9.00
2018-02-03T12:47:47.837Z,8.07
2018-02-03T12:50:15.572Z,7.67
2018-02-03T12:52:44.098Z,7.03
2018-02-03T12:55:12.394Z,6.90
2018-02-03T12:57:41.985Z,7.40
2018-02-03T13:00:09.785Z,7.43
2018-02-03T13:02:39.061Z,6.73
2018-02-03T13:05:07.851Z,7.20
2018-02-03T13:07:35.557Z,8.20
2018-02-03T13:10:03.477Z,8.80
2018-02-03T13:12:31.204Z,8.60
2018-02-03T13:14:59.037Z,8.83
2018-02-03T13:17:26.765Z,8.77
2018-02-03T13:19:54.618Z,9.10
2018-02-03T13:22:22.392Z,8.53
2018-02-03T13:24:50.153Z,8.10
2018-02-03T13:27:18.688Z,8.60
2018-02-03T13:29:47.145Z,8.20
2018-02-03T13:32:15.917Z,8.90
2018-02-03T13:34:43.607Z,7.90
2018-02-03T13:37:11.429Z,8.27
2018-02-03T13:39:39.180Z,8.50
2018-02-03T13:42:07.576Z,9.27
2018-02-03T13:44:35.256Z,7.37
2018-02-03T13:47:04.033Z,7.63
2018-02-03T13:49:31.722Z,8.17
2018-02-03T13:52:00.177Z,6.70
2018-02-03T13:54:28.044Z,7.77
2018-02-03T13:56:55.810Z,7.30
2018-02-03T13:59:24.402Z,6.97
2018-02-03T14:01:52.867Z,7.13
2018-02-03T14:04:20.601Z,7.30
2018-02-03T14:06:48.340Z,7.17
2018-02-03T14:09:16.075Z,7.77
2018-02-03T14:11:44.550Z,7.73
2018-02-03T14:14:12.304Z,7.97
2018-02-03T14:16:40.082Z,8.07
2018-02-03T14:19:07.868Z,7.67
2018-02-03T14:21:35.593Z,8.33
2018-02-03T14:24:09.002Z,8.17
2018-02-03T14:26:36.773Z,7.30
2018-02-03T14:29:05.400Z,7.90
2018-02-03T14:31:33.117Z,8.07
2018-02-03T14:34:01.622Z,7.23
2018-02-03T14:39:03.620Z,7.03
2018-02-03T14:41:31.892Z,7.80
2018-02-03T14:44:00.713Z,8.17
2018-02-03T14:46:29.938Z,7.60
2018-02-03T14:48:58.116Z,7.33
2018-02-03T14:51:27.508Z,7.40
2018-02-03T14:53:56.687Z,7.57
2018-02-03T14:56:24.513Z,7.77
2018-02-03T14:58:54.021Z,7.53
2018-02-03T15:01:21.754Z,7.40
2018-02-03T15:03:50.369Z,7.70
2018-02-03T15:06:18.157Z,8.40
2018-02-03T15:08:46.656Z,8.23
2018-02-03T15:11:15.217Z,8.20
2018-02-03T15:13:43.156Z,7.50
2018-02-03T15:16:11.122Z,7.67
2018-02-03T15:18:39.779Z,7.60
2018-02-03T15:21:08.216Z,7.90
2018-02-03T15:23:36.272Z,7.77
2018-02-03T15:26:03.990Z,8.33
2018-02-03T15:28:31.701Z,8.67
2018-02-03T15:30:59.386Z,7.53
2018-02-03T15:33:27.505Z,7.97
2018-02-03T15:35:55.892Z,7.67
2018-02-03T15:38:23.866Z,6.80
2018-02-03T15:40:51.549Z,7.90
2018-02-03T15:43:20.086Z,7.23
2018-02-03T15:45:47.866Z,7.37
2018-02-03T15:48:16.515Z,8.60
2018-02-03T15:50:44.453Z,8.47
2018-02-03T15:53:12.233Z,8.33
2018-02-03T15:55:40.916Z,8.03
2018-02-03T15:58:08.835Z,8.93
2018-02-03T16:00:36.808Z,8.80
2018-02-03T16:03:04.609Z,7.97
2018-02-03T16:05:32.459Z,7.77
2018-02-03T16:08:01.093Z,6.90
2018-02-03T16:10:29.097Z,7.33
2018-02-03T16:12:58.318Z,7.03
2018-02-03T16:15:26.452Z,7.90
2018-02-03T16:17:54.350Z,7.13
2018-02-03T16:20:22.191Z,7.00
2018-02-03T16:22:49.972Z,6.63
2018-02-03T16:25:18.025Z,7.10
2018-02-03T16:27:46.457Z,7.03
2018-02-03T16:30:15.192Z,7.17
2018-02-03T16:32:43.060Z,6.93
2018-02-03T16:35:11.577Z,7.67
2018-02-03T16:37:40.162Z,7.60
2018-02-03T16:40:07.989Z,7.73
2018-02-03T16:42:35.815Z,7.13
2018-02-03T16:45:04.339Z,7.03
2018-02-03T16:47:32.457Z,7.40
2018-02-03T16:50:00.232Z,7.00
2018-02-03T16:52:28.772Z,6.30
2018-02-03T16:54:57.452Z,7.53
2018-02-03T16:57:25.225Z,6.87
2018-02-03T16:59:53.234Z,7.33
2018-02-03T17:02:20.996Z,7.37
2018-02-03T17:04:49.949Z,7.40
2018-02-03T17:07:17.718Z,8.10
2018-02-03T17:09:45.466Z,7.47
2018-02-03T17:12:13.194Z,7.37
2018-02-03T17:14:40.901Z,7.53
2018-02-03T17:17:09.397Z,8.87
2018-02-03T17:19:37.192Z,8.07
2018-02-03T17:22:05.591Z,8.47
2018-02-03T17:24:33.286Z,8.53
2018-02-03T17:27:00.973Z,8.10
2018-02-03T17:29:30.025Z,7.73
2018-02-03T17:34:32.697Z,7.97
2018-02-03T17:37:06.317Z,7.50
2018-02-03T17:39:35.645Z,7.37
2018-02-03T17:42:03.505Z,7.50
2018-02-03T17:44:31.231Z,7.53
2018-02-03T17:47:11.117Z,7.40
2018-02-03T17:49:39.074Z,6.90
2018-02-03T17:52:07.810Z,6.63
2018-02-03T17:54:36.102Z,7.23
2018-02-03T17:57:09.785Z,6.90
2018-02-03T17:59:38.295Z,7.60
2018-02-03T18:02:06.184Z,7.57
2018-02-03T18:04:34.145Z,7.60
2018-02-03T18:07:05.704Z,7.90
2018-02-03T18:09:33.480Z,7.83
2018-02-03T18:12:01.441Z,7.53
2018-02-03T18:14:29.439Z,8.03
2018-02-03T18:16:57.280Z,8.10
2018-02-03T18:19:25.172Z,8.13
2018-02-03T18:21:53.917Z,8.00
2018-02-03T18:24:21.997Z,7.80
2018-02-03T18:26:49.935Z,7.33
2018-02-03T18:29:17.656Z,7.17
2018-02-03T18:31:45.357Z,8.00
2018-02-03T18:34:13.268Z,7.63
2018-02-03T18:36:42.039Z,8.13
2018-02-03T18:39:09.906Z,7.17
2018-02-03T18:41:37.739Z,6.80
2018-02-03T18:44:05.409Z,6.63
2018-02-03T18:46:34.323Z,7.20
2018-02-03T18:49:02.783Z,5.83
2018-02-03T18:51:30.516Z,6.57
2018-02-03T18:53:58.605Z,6.30
2018-02-03T18:56:26.383Z,7.50
2018-02-03T18:58:54.344Z,7.43
2018-02-03T19:01:22.734Z,7.37
2018-02-03T19:03:50.603Z,7.30
2018-02-03T19:06:18.563Z,7.83
2018-02-03T19:08:47.785Z,7.97
2018-02-03T19:11:15.572Z,7.03
2018-02-03T19:13:44.463Z,6.70
2018-02-03T19:16:12.197Z,7.03
2018-02-03T19:18:39.930Z,7.13
2018-02-03T19:21:07.617Z,6.03
2018-02-03T19:23:35.376Z,6.57
2018-02-03T19:26:03.113Z,5.90
2018-02-03T19:28:30.825Z,5.90
2018-02-03T19:30:58.606Z,6.17
2018-02-03T19:33:26.296Z,5.90
2018-02-03T19:35:54.167Z,5.60
2018-02-03T19:38:22.851Z,6.10
2018-02-03T19:40:50.720Z,7.80
2018-02-03T19:43:18.495Z,7.70
2018-02-03T19:45:47.173Z,6.43
2018-02-03T19:48:14.952Z,6.97
2018-02-03T19:50:44.385Z,5.90
2018-02-03T19:53:12.941Z,5.63
2018-02-03T19:55:41.211Z,5.73
2018-02-03T19:58:10.428Z,6.53
2018-02-03T20:00:39.021Z,6.00
2018-02-03T20:03:07.533Z,5.83
2018-02-03T20:05:36.145Z,5.90
2018-02-03T20:08:03.997Z,5.37
2018-02-03T20:10:31.773Z,5.70
2018-02-03T20:12:59.622Z,5.60
2018-02-03T20:15:27.349Z,4.83
2018-02-03T20:17:55.097Z,5.70
2018-02-03T20:20:22.832Z,6.07
2018-02-03T20:22:50.595Z,10.23
2018-02-03T20:25:18.429Z,5.53
2018-02-03T20:27:46.137Z,3.97
2018-02-03T20:30:14.669Z,5.47
2018-02-03T20:32:42.404Z,4.83
2018-02-03T20:35:10.904Z,4.93
2018-02-03T20:37:39.515Z,5.03
2018-02-03T20:40:08.045Z,4.77
2018-02-03T20:42:36.582Z,5.00
2018-02-03T20:45:04.272Z,7.33
2018-02-03T20:47:32.971Z,6.07
2018-02-03T20:50:00.833Z,6.40
2018-02-03T20:52:28.658Z,5.40
2018-02-03T20:54:56.380Z,4.97
2018-02-03T20:57:25.105Z,4.73
2018-02-03T20:59:52.838Z,4.67
2018-02-03T21:02:21.248Z,5.03
2018-02-03T21:04:48.888Z,4.80
2018-02-03T21:07:16.605Z,5.80
2018-02-03T21:09:44.356Z,5.17
2018-02-03T21:12:12.840Z,5.67
2018-02-03T21:14:40.575Z,5.67
2018-02-03T21:17:08.265Z,5.47
2018-02-03T21:19:36.047Z,5.40
2018-02-03T21:22:04.531Z,5.90
2018-02-03T21:24:33.012Z,6.50
2018-02-03T21:27:01.596Z,6.40
2018-02-03T21:29:29.317Z,5.80
2018-02-03T21:31:57.049Z,5.47
2018-02-03T21:34:24.745Z,4.70
2018-02-03T21:36:52.448Z,4.73
2018-02-03T21:39:20.261Z,5.80
2018-02-03T21:41:47.961Z,6.20
2018-02-03T21:44:16.426Z,4.77
2018-02-03T21:46:44.193Z,4.97
2018-02-03T21:49:11.974Z,5.20
2018-02-03T21:51:39.703Z,4.63
2018-02-03T21:54:07.447Z,4.77
2018-02-03T21:56:35.514Z,5.50
2018-02-03T21:59:03.303Z,4.70
2018-02-03T22:01:31.051Z,4.70
2018-02-03T22:03:58.831Z,5.50
2018-02-03T22:06:27.370Z,5.93
2018-02-03T22:08:55.070Z,4.93
2018-02-03T22:11:22.784Z,5.27
2018-02-03T22:13:51.296Z,4.93
2018-02-03T22:16:19.037Z,6.57
2018-02-03T22:18:46.720Z,5.40
2018-02-03T22:21:14.406Z,5.83
2018-02-03T22:23:42.144Z,5.27
2018-02-03T22:26:09.868Z,5.40
2018-02-03T22:28:37.607Z,5.60
2018-02-03T22:31:05.414Z,5.20
2018-02-03T22:33:33.082Z,5.73
2018-02-03T22:36:00.868Z,4.90
2018-02-03T22:38:29.373Z,5.00
2018-02-03T22:40:57.857Z,5.87
2018-02-03T22:43:26.368Z,5.00
2018-02-03T22:45:54.058Z,5.50
2018-02-03T22:48:21.833Z,5.57
2018-02-03T22:50:49.609Z,5.60
2018-02-03T22:53:18.106Z,5.67
2018-02-03T22:55:45.809Z,5.17
2018-02-03T22:58:13.618Z,6.10
2018-02-03T23:00:41.313Z,5.73
2018-02-03T23:03:09.769Z,5.67
2018-02-03T23:05:37.556Z,5.83
2018-02-03T23:08:06.248Z,5.70
2018-02-03T23:10:33.951Z,5.90
2018-02-03T23:13:01.690Z,5.60
2018-02-03T23:15:30.201Z,6.03
2018-02-03T23:17:58.958Z,5.50
2018-02-03T23:20:26.751Z,7.33
2018-02-03T23:22:55.004Z,5.00
2018-02-03T23:25:22.749Z,4.27
2018-02-03T23:27:50.980Z,4.43
2018-02-03T23:30:18.749Z,4.33
2018-02-03T23:32:46.454Z,5.33
2018-02-03T23:35:14.257Z,4.90
2018-02-03T23:37:41.966Z,4.53
2018-02-03T23:40:09.794Z,4.43
2018-02-03T23:42:38.281Z,4.40
2018-02-03T23:45:05.979Z,5.20
2018-02-03T23:47:33.844Z,4.87
2018-02-03T23:50:01.650Z,4.73
2018-02-03T23:52:29.312Z,4.40
2018-02-03T23:54:57.133Z,6.80
2018-02-03T23:57:24.870Z,12.40
2018-02-03T23:59:52.648Z,6.17
